Meshoppen, Pennsylvania
Current Conditions -  °F | °C
As of 1:06 PM on Thursday 23 Oct 2014 (Local Time) from KAVP Reporting Station
Light Rain Light Rain  
Wind Chill: 40°   Ceiling: 1400
Heat Index: 46°   Visibility: 4mi
Dew Point: 42°   Wind: 14mph
Humidity: 86%   Direction: 10°N
Pressure: 29.85"   Gusts: 23mph
Location:  41.61°N, 76.05°W
Report Text: KAVP 231706Z AUTO 01012G20KT 4SM -RA BR OVC014 08/06 A2985 RMK AO2 RAB1657 P0000 T00780056
Loading
Personal Weather Stations






























Interactive Weather Map
Tropical Storm Tracking
New forecast layout! Learn more

10-Day Weather Forecast

Advertisements
Track Severe Weather on mobile